sensor_id;sensor_type;location;lat;lon;timestamp;temperature;humidity
73576;DHT22;61859;49.204;8.140;2024-03-06T00:00:31;5.40;98.40
73576;DHT22;61859;49.204;8.140;2024-03-06T00:02:58;5.30;98.40
73576;DHT22;61859;49.204;8.140;2024-03-06T00:05:24;5.40;98.30
73576;DHT22;61859;49.204;8.140;2024-03-06T00:07:49;5.20;98.30
73576;DHT22;61859;49.204;8.140;2024-03-06T00:10:15;5.40;98.20
73576;DHT22;61859;49.204;8.140;2024-03-06T00:12:40;5.30;98.20
73576;DHT22;61859;49.204;8.140;2024-03-06T00:15:06;5.30;98.40
73576;DHT22;61859;49.204;8.140;2024-03-06T00:17:32;5.40;98.50
73576;DHT22;61859;49.204;8.140;2024-03-06T00:19:57;5.50;98.40
73576;DHT22;61859;49.204;8.140;2024-03-06T00:22:23;5.60;98.30
73576;DHT22;61859;49.204;8.140;2024-03-06T00:24:48;5.40;98.10
73576;DHT22;61859;49.204;8.140;2024-03-06T00:27:14;5.70;98.00
73576;DHT22;61859;49.204;8.140;2024-03-06T00:29:39;5.60;97.80
73576;DHT22;61859;49.204;8.140;2024-03-06T00:32:05;5.70;97.50
73576;DHT22;61859;49.204;8.140;2024-03-06T00:34:31;5.70;97.40
73576;DHT22;61859;49.204;8.140;2024-03-06T00:36:57;5.70;97.20
73576;DHT22;61859;49.204;8.140;2024-03-06T00:39:22;5.80;97.40
73576;DHT22;61859;49.204;8.140;2024-03-06T00:41:48;5.70;97.20
73576;DHT22;61859;49.204;8.140;2024-03-06T00:44:13;5.70;97.00
73576;DHT22;61859;49.204;8.140;2024-03-06T00:46:39;5.80;96.90
73576;DHT22;61859;49.204;8.140;2024-03-06T00:49:04;5.80;97.00
73576;DHT22;61859;49.204;8.140;2024-03-06T00:51:30;5.70;97.00
73576;DHT22;61859;49.204;8.140;2024-03-06T00:53:57;5.70;97.00
73576;DHT22;61859;49.204;8.140;2024-03-06T00:56:22;5.80;96.70
73576;DHT22;61859;49.204;8.140;2024-03-06T00:58:48;5.80;96.80
73576;DHT22;61859;49.204;8.140;2024-03-06T01:01:15;5.80;96.80
73576;DHT22;61859;49.204;8.140;2024-03-06T01:03:41;5.70;96.80
73576;DHT22;61859;49.204;8.140;2024-03-06T01:06:06;5.80;96.80
73576;DHT22;61859;49.204;8.140;2024-03-06T01:08:32;5.70;97.00
73576;DHT22;61859;49.204;8.140;2024-03-06T01:10:57;5.70;96.80
73576;DHT22;61859;49.204;8.140;2024-03-06T01:13:23;5.80;96.90
73576;DHT22;61859;49.204;8.140;2024-03-06T01:15:49;5.90;96.90
73576;DHT22;61859;49.204;8.140;2024-03-06T01:18:14;5.70;96.90
73576;DHT22;61859;49.204;8.140;2024-03-06T01:20:40;5.70;97.00
73576;DHT22;61859;49.204;8.140;2024-03-06T01:23:06;5.80;97.00
73576;DHT22;61859;49.204;8.140;2024-03-06T01:25:32;5.60;97.10
73576;DHT22;61859;49.204;8.140;2024-03-06T01:27:57;5.80;96.90
73576;DHT22;61859;49.204;8.140;2024-03-06T01:30:23;5.70;96.90
73576;DHT22;61859;49.204;8.140;2024-03-06T01:32:49;5.60;97.00
73576;DHT22;61859;49.204;8.140;2024-03-06T01:35:14;5.50;97.00
73576;DHT22;61859;49.204;8.140;2024-03-06T01:37:40;5.80;97.00
73576;DHT22;61859;49.204;8.140;2024-03-06T01:40:06;5.60;97.00
73576;DHT22;61859;49.204;8.140;2024-03-06T01:42:32;5.80;96.80
73576;DHT22;61859;49.204;8.140;2024-03-06T01:44:58;5.80;96.90
73576;DHT22;61859;49.204;8.140;2024-03-06T01:47:24;5.90;96.90
73576;DHT22;61859;49.204;8.140;2024-03-06T01:49:50;5.80;96.70
73576;DHT22;61859;49.204;8.140;2024-03-06T01:52:16;5.70;96.70
73576;DHT22;61859;49.204;8.140;2024-03-06T01:54:43;5.70;96.60
73576;DHT22;61859;49.204;8.140;2024-03-06T01:57:11;5.80;96.70
73576;DHT22;61859;49.204;8.140;2024-03-06T01:59:39;5.80;96.50
73576;DHT22;61859;49.204;8.140;2024-03-06T02:02:05;5.70;96.60
73576;DHT22;61859;49.204;8.140;2024-03-06T02:04:33;5.80;96.60
73576;DHT22;61859;49.204;8.140;2024-03-06T02:06:58;5.60;96.60
73576;DHT22;61859;49.204;8.140;2024-03-06T02:09:24;5.80;96.80
73576;DHT22;61859;49.204;8.140;2024-03-06T02:11:49;5.60;96.90
73576;DHT22;61859;49.204;8.140;2024-03-06T02:14:19;5.50;96.90
73576;DHT22;61859;49.204;8.140;2024-03-06T02:16:44;5.50;96.80
73576;DHT22;61859;49.204;8.140;2024-03-06T02:19:10;5.60;97.00
73576;DHT22;61859;49.204;8.140;2024-03-06T02:21:35;5.60;96.90
73576;DHT22;61859;49.204;8.140;2024-03-06T02:24:01;5.40;97.00
73576;DHT22;61859;49.204;8.140;2024-03-06T02:26:27;5.30;97.20
73576;DHT22;61859;49.204;8.140;2024-03-06T02:28:54;5.10;97.40
73576;DHT22;61859;49.204;8.140;2024-03-06T02:31:20;5.30;97.70
73576;DHT22;61859;49.204;8.140;2024-03-06T02:33:47;5.30;97.90
73576;DHT22;61859;49.204;8.140;2024-03-06T02:36:14;5.20;98.00
73576;DHT22;61859;49.204;8.140;2024-03-06T02:38:39;5.10;98.10
73576;DHT22;61859;49.204;8.140;2024-03-06T02:41:05;5.20;98.50
73576;DHT22;61859;49.204;8.140;2024-03-06T02:43:32;5.10;98.80
73576;DHT22;61859;49.204;8.140;2024-03-06T02:45:58;5.00;98.90
73576;DHT22;61859;49.204;8.140;2024-03-06T02:48:24;5.10;99.10
73576;DHT22;61859;49.204;8.140;2024-03-06T02:50:49;4.90;99.00
73576;DHT22;61859;49.204;8.140;2024-03-06T02:53:15;5.00;99.00
73576;DHT22;61859;49.204;8.140;2024-03-06T02:55:40;4.90;99.00
73576;DHT22;61859;49.204;8.140;2024-03-06T02:58:06;5.00;98.80
73576;DHT22;61859;49.204;8.140;2024-03-06T03:00:31;4.80;98.80
73576;DHT22;61859;49.204;8.140;2024-03-06T03:02:57;4.90;98.70
73576;DHT22;61859;49.204;8.140;2024-03-06T03:05:23;4.90;98.60
73576;DHT22;61859;49.204;8.140;2024-03-06T03:07:49;4.90;98.80
73576;DHT22;61859;49.204;8.140;2024-03-06T03:10:15;4.80;98.80
73576;DHT22;61859;49.204;8.140;2024-03-06T03:12:40;4.80;98.90
73576;DHT22;61859;49.204;8.140;2024-03-06T03:15:06;4.70;98.90
73576;DHT22;61859;49.204;8.140;2024-03-06T03:17:32;4.60;99.10
73576;DHT22;61859;49.204;8.140;2024-03-06T03:19:59;4.70;99.10
73576;DHT22;61859;49.204;8.140;2024-03-06T03:22:25;4.60;99.30
73576;DHT22;61859;49.204;8.140;2024-03-06T03:24:50;4.50;99.30
73576;DHT22;61859;49.204;8.140;2024-03-06T03:27:16;4.60;99.40
73576;DHT22;61859;49.204;8.140;2024-03-06T03:29:41;4.50;99.80
73576;DHT22;61859;49.204;8.140;2024-03-06T03:32:07;4.60;99.90
73576;DHT22;61859;49.204;8.140;2024-03-06T03:34:36;4.70;99.90
73576;DHT22;61859;49.204;8.140;2024-03-06T03:37:01;4.70;99.90
73576;DHT22;61859;49.204;8.140;2024-03-06T03:39:27;4.80;99.90
73576;DHT22;61859;49.204;8.140;2024-03-06T03:41:53;4.70;99.90
73576;DHT22;61859;49.204;8.140;2024-03-06T03:44:19;4.80;99.90
73576;DHT22;61859;49.204;8.140;2024-03-06T03:46:45;5.00;99.60
73576;DHT22;61859;49.204;8.140;2024-03-06T03:49:11;4.80;99.80
73576;DHT22;61859;49.204;8.140;2024-03-06T03:51:38;4.90;99.60
73576;DHT22;61859;49.204;8.140;2024-03-06T03:54:04;4.90;99.50
73576;DHT22;61859;49.204;8.140;2024-03-06T03:56:30;5.00;99.40
73576;DHT22;61859;49.204;8.140;2024-03-06T03:58:56;5.10;99.20
73576;DHT22;61859;49.204;8.140;2024-03-06T04:01:22;4.90;99.20
73576;DHT22;61859;49.204;8.140;2024-03-06T04:03:48;5.10;99.20
73576;DHT22;61859;49.204;8.140;2024-03-06T04:06:14;5.00;99.20
73576;DHT22;61859;49.204;8.140;2024-03-06T04:08:39;4.80;99.20
73576;DHT22;61859;49.204;8.140;2024-03-06T04:11:06;4.90;99.30
73576;DHT22;61859;49.204;8.140;2024-03-06T04:13:37;4.70;99.30
73576;DHT22;61859;49.204;8.140;2024-03-06T04:16:03;4.50;99.20
73576;DHT22;61859;49.204;8.140;2024-03-06T04:18:31;4.40;99.40
73576;DHT22;61859;49.204;8.140;2024-03-06T04:21:08;4.60;99.40
73576;DHT22;61859;49.204;8.140;2024-03-06T04:23:36;4.40;99.60
73576;DHT22;61859;49.204;8.140;2024-03-06T04:26:02;4.40;99.90
73576;DHT22;61859;49.204;8.140;2024-03-06T04:28:29;4.40;99.90
73576;DHT22;61859;49.204;8.140;2024-03-06T04:30:55;4.40;99.90
73576;DHT22;61859;49.204;8.140;2024-03-06T04:33:21;4.30;99.90
73576;DHT22;61859;49.204;8.140;2024-03-06T04:35:46;4.20;99.90
73576;DHT22;61859;49.204;8.140;2024-03-06T04:38:12;4.40;99.90
73576;DHT22;61859;49.204;8.140;2024-03-06T04:40:37;4.30;99.90
73576;DHT22;61859;49.204;8.140;2024-03-06T04:43:03;4.30;99.90
73576;DHT22;61859;49.204;8.140;2024-03-06T04:45:29;4.30;99.90
73576;DHT22;61859;49.204;8.140;2024-03-06T04:47:55;4.10;99.90
73576;DHT22;61859;49.204;8.140;2024-03-06T04:50:20;4.40;99.90
73576;DHT22;61859;49.204;8.140;2024-03-06T04:52:46;4.20;99.90
73576;DHT22;61859;49.204;8.140;2024-03-06T04:55:12;4.30;99.90
73576;DHT22;61859;49.204;8.140;2024-03-06T04:57:38;4.30;99.90
73576;DHT22;61859;49.204;8.140;2024-03-06T05:00:05;4.40;99.90
73576;DHT22;61859;49.204;8.140;2024-03-06T05:02:34;4.30;99.90
73576;DHT22;61859;49.204;8.140;2024-03-06T05:05:02;4.50;99.90
73576;DHT22;61859;49.204;8.140;2024-03-06T05:07:29;4.40;99.90
73576;DHT22;61859;49.204;8.140;2024-03-06T05:09:55;4.60;99.90
73576;DHT22;61859;49.204;8.140;2024-03-06T05:12:20;4.50;99.90
73576;DHT22;61859;49.204;8.140;2024-03-06T05:14:46;4.50;99.90
73576;DHT22;61859;49.204;8.140;2024-03-06T05:17:11;4.90;99.90
73576;DHT22;61859;49.204;8.140;2024-03-06T05:19:37;4.60;99.90
73576;DHT22;61859;49.204;8.140;2024-03-06T05:22:03;4.80;99.90
73576;DHT22;61859;49.204;8.140;2024-03-06T05:24:30;4.80;99.90
73576;DHT22;61859;49.204;8.140;2024-03-06T05:26:55;4.80;99.90
73576;DHT22;61859;49.204;8.140;2024-03-06T05:29:21;4.80;99.90
73576;DHT22;61859;49.204;8.140;2024-03-06T05:31:46;4.80;99.90
73576;DHT22;61859;49.204;8.140;2024-03-06T05:34:12;4.80;99.90
73576;DHT22;61859;49.204;8.140;2024-03-06T05:36:37;4.90;99.90
73576;DHT22;61859;49.204;8.140;2024-03-06T05:39:03;4.90;99.90
73576;DHT22;61859;49.204;8.140;2024-03-06T05:41:32;4.90;99.90
73576;DHT22;61859;49.204;8.140;2024-03-06T05:43:58;4.80;99.90
73576;DHT22;61859;49.204;8.140;2024-03-06T05:46:23;4.90;99.90
73576;DHT22;61859;49.204;8.140;2024-03-06T05:48:49;4.80;99.90
73576;DHT22;61859;49.204;8.140;2024-03-06T05:51:16;4.90;99.90
73576;DHT22;61859;49.204;8.140;2024-03-06T05:53:42;5.00;99.90
73576;DHT22;61859;49.204;8.140;2024-03-06T05:56:09;4.90;99.70
73576;DHT22;61859;49.204;8.140;2024-03-06T05:58:34;5.00;99.70
73576;DHT22;61859;49.204;8.140;2024-03-06T06:01:03;4.90;99.70
73576;DHT22;61859;49.204;8.140;2024-03-06T06:03:29;5.00;99.70
73576;DHT22;61859;49.204;8.140;2024-03-06T06:05:56;4.90;99.70
73576;DHT22;61859;49.204;8.140;2024-03-06T06:08:21;5.00;99.70
73576;DHT22;61859;49.204;8.140;2024-03-06T06:10:47;4.90;99.80
73576;DHT22;61859;49.204;8.140;2024-03-06T06:13:13;5.00;99.70
73576;DHT22;61859;49.204;8.140;2024-03-06T06:15:38;5.10;99.60
73576;DHT22;61859;49.204;8.140;2024-03-06T06:18:04;5.10;99.50
73576;DHT22;61859;49.204;8.140;2024-03-06T06:20:30;5.20;99.50
73576;DHT22;61859;49.204;8.140;2024-03-06T06:22:55;5.10;99.40
73576;DHT22;61859;49.204;8.140;2024-03-06T06:25:22;5.20;99.40
73576;DHT22;61859;49.204;8.140;2024-03-06T06:27:47;5.30;99.50
73576;DHT22;61859;49.204;8.140;2024-03-06T06:30:15;5.10;99.60
73576;DHT22;61859;49.204;8.140;2024-03-06T06:32:42;5.30;99.30
73576;DHT22;61859;49.204;8.140;2024-03-06T06:35:08;5.30;98.90
73576;DHT22;61859;49.204;8.140;2024-03-06T06:37:35;5.40;98.90
73576;DHT22;61859;49.204;8.140;2024-03-06T06:40:00;5.40;98.70
73576;DHT22;61859;49.204;8.140;2024-03-06T06:42:32;5.50;98.40
73576;DHT22;61859;49.204;8.140;2024-03-06T06:44:58;5.50;98.30
73576;DHT22;61859;49.204;8.140;2024-03-06T06:47:24;5.60;98.10
73576;DHT22;61859;49.204;8.140;2024-03-06T06:49:49;5.60;97.90
73576;DHT22;61859;49.204;8.140;2024-03-06T06:52:15;5.70;97.80
73576;DHT22;61859;49.204;8.140;2024-03-06T06:54:41;5.70;97.70
73576;DHT22;61859;49.204;8.140;2024-03-06T06:57:06;5.60;97.70
73576;DHT22;61859;49.204;8.140;2024-03-06T06:59:33;5.80;97.80
73576;DHT22;61859;49.204;8.140;2024-03-06T07:02:00;5.70;97.80
73576;DHT22;61859;49.204;8.140;2024-03-06T07:04:25;5.80;97.80
73576;DHT22;61859;49.204;8.140;2024-03-06T07:06:51;5.90;97.60
73576;DHT22;61859;49.204;8.140;2024-03-06T07:09:17;6.00;97.80
73576;DHT22;61859;49.204;8.140;2024-03-06T07:11:43;5.90;97.70
73576;DHT22;61859;49.204;8.140;2024-03-06T07:14:10;6.00;97.50
73576;DHT22;61859;49.204;8.140;2024-03-06T07:16:44;6.30;97.60
73576;DHT22;61859;49.204;8.140;2024-03-06T07:19:11;6.30;97.70
73576;DHT22;61859;49.204;8.140;2024-03-06T07:21:36;6.30;97.50
73576;DHT22;61859;49.204;8.140;2024-03-06T07:24:03;6.40;97.30
73576;DHT22;61859;49.204;8.140;2024-03-06T07:26:29;6.30;97.30
73576;DHT22;61859;49.204;8.140;2024-03-06T07:28:56;6.50;97.30
73576;DHT22;61859;49.204;8.140;2024-03-06T07:31:21;6.50;97.50
73576;DHT22;61859;49.204;8.140;2024-03-06T07:33:47;6.50;97.60
73576;DHT22;61859;49.204;8.140;2024-03-06T07:36:12;6.60;97.50
73576;DHT22;61859;49.204;8.140;2024-03-06T07:38:38;6.60;97.40
73576;DHT22;61859;49.204;8.140;2024-03-06T07:41:03;6.80;97.40
73576;DHT22;61859;49.204;8.140;2024-03-06T07:43:29;6.70;97.30
73576;DHT22;61859;49.204;8.140;2024-03-06T07:45:54;6.90;97.40
73576;DHT22;61859;49.204;8.140;2024-03-06T07:48:20;7.00;97.30
73576;DHT22;61859;49.204;8.140;2024-03-06T07:50:46;7.10;97.10
73576;DHT22;61859;49.204;8.140;2024-03-06T07:53:11;7.20;96.90
73576;DHT22;61859;49.204;8.140;2024-03-06T07:55:37;7.10;96.60
73576;DHT22;61859;49.204;8.140;2024-03-06T07:58:04;7.10;96.10
73576;DHT22;61859;49.204;8.140;2024-03-06T08:00:30;7.30;95.70
73576;DHT22;61859;49.204;8.140;2024-03-06T08:02:56;7.30;95.80
73576;DHT22;61859;49.204;8.140;2024-03-06T08:05:22;7.30;95.70
73576;DHT22;61859;49.204;8.140;2024-03-06T08:07:47;7.10;95.80
73576;DHT22;61859;49.204;8.140;2024-03-06T08:10:13;7.30;96.00
73576;DHT22;61859;49.204;8.140;2024-03-06T08:12:42;7.30;95.90
73576;DHT22;61859;49.204;8.140;2024-03-06T08:15:10;7.40;96.10
73576;DHT22;61859;49.204;8.140;2024-03-06T08:17:40;7.60;96.20
73576;DHT22;61859;49.204;8.140;2024-03-06T08:20:07;7.80;95.90
73576;DHT22;61859;49.204;8.140;2024-03-06T08:22:41;7.90;95.80
73576;DHT22;61859;49.204;8.140;2024-03-06T08:25:12;8.00;95.60
73576;DHT22;61859;49.204;8.140;2024-03-06T08:27:39;8.10;94.20
73576;DHT22;61859;49.204;8.140;2024-03-06T08:30:06;8.10;93.30
73576;DHT22;61859;49.204;8.140;2024-03-06T08:32:32;8.10;93.10
73576;DHT22;61859;49.204;8.140;2024-03-06T08:35:09;8.20;93.40
73576;DHT22;61859;49.204;8.140;2024-03-06T08:37:41;8.30;93.30
73576;DHT22;61859;49.204;8.140;2024-03-06T08:40:07;8.20;92.70
73576;DHT22;61859;49.204;8.140;2024-03-06T08:42:36;8.20;92.60
73576;DHT22;61859;49.204;8.140;2024-03-06T08:45:02;8.30;93.10
73576;DHT22;61859;49.204;8.140;2024-03-06T08:47:27;8.20;93.10
73576;DHT22;61859;49.204;8.140;2024-03-06T08:49:53;8.40;92.80
73576;DHT22;61859;49.204;8.140;2024-03-06T08:52:19;8.40;91.80
73576;DHT22;61859;49.204;8.140;2024-03-06T08:54:46;8.40;92.00
73576;DHT22;61859;49.204;8.140;2024-03-06T08:57:12;8.50;92.30
73576;DHT22;61859;49.204;8.140;2024-03-06T08:59:37;8.60;91.80
73576;DHT22;61859;49.204;8.140;2024-03-06T09:02:19;8.70;91.90
73576;DHT22;61859;49.204;8.140;2024-03-06T09:04:45;8.90;91.60
73576;DHT22;61859;49.204;8.140;2024-03-06T09:07:11;9.20;90.00
73576;DHT22;61859;49.204;8.140;2024-03-06T09:09:37;9.20;88.90
73576;DHT22;61859;49.204;8.140;2024-03-06T09:12:04;9.50;89.00
73576;DHT22;61859;49.204;8.140;2024-03-06T09:14:34;9.80;88.60
73576;DHT22;61859;49.204;8.140;2024-03-06T09:17:00;10.20;86.40
73576;DHT22;61859;49.204;8.140;2024-03-06T09:19:26;10.60;84.90
73576;DHT22;61859;49.204;8.140;2024-03-06T09:21:52;11.00;84.40
73576;DHT22;61859;49.204;8.140;2024-03-06T09:24:17;11.20;82.40
73576;DHT22;61859;49.204;8.140;2024-03-06T09:26:45;11.40;81.40
73576;DHT22;61859;49.204;8.140;2024-03-06T09:29:12;11.40;81.40
73576;DHT22;61859;49.204;8.140;2024-03-06T09:31:38;11.40;81.10
73576;DHT22;61859;49.204;8.140;2024-03-06T09:34:03;11.40;80.40
73576;DHT22;61859;49.204;8.140;2024-03-06T09:36:29;11.60;79.70
73576;DHT22;61859;49.204;8.140;2024-03-06T09:38:54;11.50;78.40
73576;DHT22;61859;49.204;8.140;2024-03-06T09:41:21;11.70;78.30
73576;DHT22;61859;49.204;8.140;2024-03-06T09:43:47;11.60;77.90
73576;DHT22;61859;49.204;8.140;2024-03-06T09:46:13;11.80;76.60
73576;DHT22;61859;49.204;8.140;2024-03-06T09:48:46;12.00;76.40
73576;DHT22;61859;49.204;8.140;2024-03-06T09:51:12;12.40;76.60
73576;DHT22;61859;49.204;8.140;2024-03-06T09:53:41;12.50;76.40
73576;DHT22;61859;49.204;8.140;2024-03-06T09:56:10;12.60;75.80
73576;DHT22;61859;49.204;8.140;2024-03-06T09:58:35;12.80;73.70
73576;DHT22;61859;49.204;8.140;2024-03-06T10:01:01;12.90;72.60
73576;DHT22;61859;49.204;8.140;2024-03-06T10:03:32;12.90;71.30
73576;DHT22;61859;49.204;8.140;2024-03-06T10:05:58;13.10;70.70
73576;DHT22;61859;49.204;8.140;2024-03-06T10:08:24;13.50;70.40
73576;DHT22;61859;49.204;8.140;2024-03-06T10:10:52;13.90;70.30
73576;DHT22;61859;49.204;8.140;2024-03-06T10:13:18;14.00;68.40
73576;DHT22;61859;49.204;8.140;2024-03-06T10:16:00;14.20;68.20
73576;DHT22;61859;49.204;8.140;2024-03-06T10:18:27;14.50;68.10
73576;DHT22;61859;49.204;8.140;2024-03-06T10:20:54;14.90;67.10
73576;DHT22;61859;49.204;8.140;2024-03-06T10:23:19;15.00;65.70
73576;DHT22;61859;49.204;8.140;2024-03-06T10:25:49;15.00;65.20
73576;DHT22;61859;49.204;8.140;2024-03-06T10:28:19;15.10;64.00
73576;DHT22;61859;49.204;8.140;2024-03-06T10:30:46;15.20;63.10
73576;DHT22;61859;49.204;8.140;2024-03-06T10:33:13;15.10;63.30
73576;DHT22;61859;49.204;8.140;2024-03-06T10:35:43;15.10;63.20
73576;DHT22;61859;49.204;8.140;2024-03-06T10:38:10;15.20;63.40
73576;DHT22;61859;49.204;8.140;2024-03-06T10:40:41;15.40;64.40
73576;DHT22;61859;49.204;8.140;2024-03-06T10:43:08;15.60;64.20
73576;DHT22;61859;49.204;8.140;2024-03-06T10:45:50;15.80;64.00
73576;DHT22;61859;49.204;8.140;2024-03-06T10:48:18;16.20;61.80
73576;DHT22;61859;49.204;8.140;2024-03-06T10:50:45;16.10;61.00
73576;DHT22;61859;49.204;8.140;2024-03-06T10:53:15;16.20;61.70
73576;DHT22;61859;49.204;8.140;2024-03-06T10:55:43;16.20;60.90
73576;DHT22;61859;49.204;8.140;2024-03-06T10:58:10;16.00;61.40
73576;DHT22;61859;49.204;8.140;2024-03-06T11:00:38;15.80;62.10
73576;DHT22;61859;49.204;8.140;2024-03-06T11:03:07;15.60;62.00
73576;DHT22;61859;49.204;8.140;2024-03-06T11:05:37;15.40;63.30
73576;DHT22;61859;49.204;8.140;2024-03-06T11:10:37;15.10;63.50
73576;DHT22;61859;49.204;8.140;2024-03-06T11:13:07;15.00;63.20
73576;DHT22;61859;49.204;8.140;2024-03-06T11:15:34;15.00;63.80
73576;DHT22;61859;49.204;8.140;2024-03-06T11:23:28;14.50;64.90
73576;DHT22;61859;49.204;8.140;2024-03-06T11:25:55;14.30;66.70
73576;DHT22;61859;49.204;8.140;2024-03-06T11:28:24;14.10;66.70
73576;DHT22;61859;49.204;8.140;2024-03-06T11:31:10;14.10;66.40
73576;DHT22;61859;49.204;8.140;2024-03-06T11:33:45;14.00;67.20
73576;DHT22;61859;49.204;8.140;2024-03-06T11:36:31;13.70;67.40
73576;DHT22;61859;49.204;8.140;2024-03-06T11:39:06;13.50;68.60
73576;DHT22;61859;49.204;8.140;2024-03-06T11:41:47;13.50;70.70
73576;DHT22;61859;49.204;8.140;2024-03-06T11:44:16;13.40;71.40
73576;DHT22;61859;49.204;8.140;2024-03-06T11:46:45;13.30;69.60
73576;DHT22;61859;49.204;8.140;2024-03-06T11:49:16;13.30;69.40
73576;DHT22;61859;49.204;8.140;2024-03-06T11:51:55;13.10;70.90
73576;DHT22;61859;49.204;8.140;2024-03-06T11:54:22;13.00;71.70
73576;DHT22;61859;49.204;8.140;2024-03-06T11:56:53;12.90;71.30
73576;DHT22;61859;49.204;8.140;2024-03-06T11:59:23;12.70;72.50
73576;DHT22;61859;49.204;8.140;2024-03-06T12:01:50;12.60;73.50
73576;DHT22;61859;49.204;8.140;2024-03-06T12:04:16;12.70;73.00
73576;DHT22;61859;49.204;8.140;2024-03-06T12:06:42;12.90;71.20
73576;DHT22;61859;49.204;8.140;2024-03-06T12:09:07;12.80;71.10
73576;DHT22;61859;49.204;8.140;2024-03-06T12:11:36;12.80;71.80
73576;DHT22;61859;49.204;8.140;2024-03-06T12:14:02;13.10;71.90
73576;DHT22;61859;49.204;8.140;2024-03-06T12:16:28;13.00;72.10
73576;DHT22;61859;49.204;8.140;2024-03-06T12:18:58;13.20;71.60
73576;DHT22;61859;49.204;8.140;2024-03-06T12:21:33;13.30;71.60
73576;DHT22;61859;49.204;8.140;2024-03-06T12:24:06;13.30;69.20
73576;DHT22;61859;49.204;8.140;2024-03-06T12:26:32;13.40;70.40
73576;DHT22;61859;49.204;8.140;2024-03-06T12:29:08;13.40;70.50
73576;DHT22;61859;49.204;8.140;2024-03-06T12:31:35;13.50;70.40
73576;DHT22;61859;49.204;8.140;2024-03-06T12:34:01;13.50;70.70
73576;DHT22;61859;49.204;8.140;2024-03-06T12:36:28;13.50;71.30
73576;DHT22;61859;49.204;8.140;2024-03-06T12:38:55;13.50;70.50
73576;DHT22;61859;49.204;8.140;2024-03-06T12:41:21;13.50;69.30
73576;DHT22;61859;49.204;8.140;2024-03-06T12:43:47;13.50;69.80
73576;DHT22;61859;49.204;8.140;2024-03-06T12:46:12;13.30;70.90
73576;DHT22;61859;49.204;8.140;2024-03-06T12:48:38;13.20;71.30
73576;DHT22;61859;49.204;8.140;2024-03-06T12:51:04;13.10;72.00
73576;DHT22;61859;49.204;8.140;2024-03-06T12:53:32;13.20;71.30
73576;DHT22;61859;49.204;8.140;2024-03-06T12:56:01;12.90;72.20
73576;DHT22;61859;49.204;8.140;2024-03-06T12:58:26;12.90;74.80
73576;DHT22;61859;49.204;8.140;2024-03-06T13:00:52;12.80;73.80
73576;DHT22;61859;49.204;8.140;2024-03-06T13:03:19;12.70;73.90
73576;DHT22;61859;49.204;8.140;2024-03-06T13:05:44;12.80;75.60
73576;DHT22;61859;49.204;8.140;2024-03-06T13:08:12;12.70;73.60
73576;DHT22;61859;49.204;8.140;2024-03-06T13:10:42;12.90;74.30
73576;DHT22;61859;49.204;8.140;2024-03-06T13:13:07;12.80;74.50
73576;DHT22;61859;49.204;8.140;2024-03-06T13:15:33;12.90;74.20
73576;DHT22;61859;49.204;8.140;2024-03-06T13:18:03;13.00;74.20
73576;DHT22;61859;49.204;8.140;2024-03-06T13:20:29;12.90;72.30
73576;DHT22;61859;49.204;8.140;2024-03-06T13:22:56;12.80;72.40
73576;DHT22;61859;49.204;8.140;2024-03-06T13:25:22;12.60;73.90
73576;DHT22;61859;49.204;8.140;2024-03-06T13:27:47;12.50;74.20
73576;DHT22;61859;49.204;8.140;2024-03-06T13:30:13;12.40;75.00
73576;DHT22;61859;49.204;8.140;2024-03-06T13:32:39;12.40;75.50
73576;DHT22;61859;49.204;8.140;2024-03-06T13:35:05;12.30;76.20
73576;DHT22;61859;49.204;8.140;2024-03-06T13:37:41;12.10;77.70
73576;DHT22;61859;49.204;8.140;2024-03-06T13:40:07;12.00;77.80
73576;DHT22;61859;49.204;8.140;2024-03-06T13:42:38;12.00;77.40
73576;DHT22;61859;49.204;8.140;2024-03-06T13:45:04;11.90;78.20
73576;DHT22;61859;49.204;8.140;2024-03-06T13:47:30;11.90;77.50
73576;DHT22;61859;49.204;8.140;2024-03-06T13:49:56;11.90;78.40
73576;DHT22;61859;49.204;8.140;2024-03-06T13:52:22;11.80;79.60
73576;DHT22;61859;49.204;8.140;2024-03-06T13:54:49;11.90;79.40
73576;DHT22;61859;49.204;8.140;2024-03-06T13:57:15;11.70;79.30
73576;DHT22;61859;49.204;8.140;2024-03-06T13:59:41;11.50;79.90
73576;DHT22;61859;49.204;8.140;2024-03-06T14:02:07;11.40;80.30
73576;DHT22;61859;49.204;8.140;2024-03-06T14:04:32;11.30;80.80
73576;DHT22;61859;49.204;8.140;2024-03-06T14:06:59;11.30;80.50
73576;DHT22;61859;49.204;8.140;2024-03-06T14:09:25;11.40;80.00
73576;DHT22;61859;49.204;8.140;2024-03-06T14:11:54;11.40;80.50
73576;DHT22;61859;49.204;8.140;2024-03-06T14:14:20;11.40;80.60
73576;DHT22;61859;49.204;8.140;2024-03-06T14:16:46;11.60;80.60
73576;DHT22;61859;49.204;8.140;2024-03-06T14:19:12;11.50;80.20
73576;DHT22;61859;49.204;8.140;2024-03-06T14:21:38;11.60;80.20
73576;DHT22;61859;49.204;8.140;2024-03-06T14:24:04;11.70;80.60
73576;DHT22;61859;49.204;8.140;2024-03-06T14:26:35;11.70;80.20
73576;DHT22;61859;49.204;8.140;2024-03-06T14:29:01;11.70;80.90
73576;DHT22;61859;49.204;8.140;2024-03-06T14:31:31;11.70;79.90
73576;DHT22;61859;49.204;8.140;2024-03-06T14:33:57;11.50;78.90
73576;DHT22;61859;49.204;8.140;2024-03-06T14:36:22;11.50;79.30
73576;DHT22;61859;49.204;8.140;2024-03-06T14:38:50;11.30;80.00
73576;DHT22;61859;49.204;8.140;2024-03-06T14:41:18;11.30;79.40
73576;DHT22;61859;49.204;8.140;2024-03-06T14:43:44;11.30;80.10
73576;DHT22;61859;49.204;8.140;2024-03-06T14:46:10;11.30;81.20
73576;DHT22;61859;49.204;8.140;2024-03-06T14:48:38;11.10;81.70
73576;DHT22;61859;49.204;8.140;2024-03-06T14:51:03;11.10;82.60
73576;DHT22;61859;49.204;8.140;2024-03-06T14:53:29;11.10;82.80
73576;DHT22;61859;49.204;8.140;2024-03-06T14:55:56;11.10;82.30
73576;DHT22;61859;49.204;8.140;2024-03-06T14:58:21;11.10;82.60
73576;DHT22;61859;49.204;8.140;2024-03-06T15:00:48;11.00;82.50
73576;DHT22;61859;49.204;8.140;2024-03-06T15:03:14;11.10;82.80
73576;DHT22;61859;49.204;8.140;2024-03-06T15:05:39;11.00;82.50
73576;DHT22;61859;49.204;8.140;2024-03-06T15:08:06;11.10;82.90
73576;DHT22;61859;49.204;8.140;2024-03-06T15:10:31;11.10;82.90
73576;DHT22;61859;49.204;8.140;2024-03-06T15:13:00;11.00;83.30
73576;DHT22;61859;49.204;8.140;2024-03-06T15:15:26;11.00;83.20
73576;DHT22;61859;49.204;8.140;2024-03-06T15:17:51;11.00;83.50
73576;DHT22;61859;49.204;8.140;2024-03-06T15:20:17;11.00;83.60
73576;DHT22;61859;49.204;8.140;2024-03-06T15:22:46;10.90;84.00
73576;DHT22;61859;49.204;8.140;2024-03-06T15:25:12;10.80;84.30
73576;DHT22;61859;49.204;8.140;2024-03-06T15:27:38;10.80;84.20
73576;DHT22;61859;49.204;8.140;2024-03-06T15:30:07;10.70;84.60
73576;DHT22;61859;49.204;8.140;2024-03-06T15:32:34;10.60;84.60
73576;DHT22;61859;49.204;8.140;2024-03-06T15:35:00;10.60;85.00
73576;DHT22;61859;49.204;8.140;2024-03-06T15:37:26;10.50;85.70
73576;DHT22;61859;49.204;8.140;2024-03-06T15:39:55;10.50;85.80
73576;DHT22;61859;49.204;8.140;2024-03-06T15:42:22;10.40;86.30
73576;DHT22;61859;49.204;8.140;2024-03-06T15:44:48;10.40;86.60